Fecha, hora, temperatura, viento dirección y velocidad, humedad y presión.

  • 16-01-2019 17:00:00 | 2.30°C | Oeste |20.00 km/h | 79.00% | 846.30 hPa
  • 16-01-2019 16:00:00 | 3.40°C | Oeste |15.00 km/h | 67.00% | 846.00 hPa
  • 16-01-2019 15:00:00 | 3.80°C | Oeste |21.00 km/h | 64.00% | 845.90 hPa
  • 16-01-2019 14:00:00 | 4.70°C | Oeste |17.00 km/h | 56.00% | 846.10 hPa
  • 16-01-2019 13:00:00 | 6.30°C | Este |16.00 km/h | 47.00% | 846.40 hPa
  • 16-01-2019 12:00:00 | 5.20°C | Este |17.00 km/h | 47.00% | 846.90 hPa
  • 16-01-2019 11:00:00 | 4.40°C | Sudeste |6.00 km/h | 48.00% | 847.10 hPa
  • 16-01-2019 10:00:00 | -0.60°C | Este |3.00 km/h | 67.00% | 847.10 hPa
  • 16-01-2019 09:00:00 | -3.40°C | Norte |2.00 km/h | 74.00% | 847.00 hPa
  • 16-01-2019 08:00:00 | -2.90°C | Sudoeste |2.00 km/h | 66.00% | 846.90 hPa
  • 16-01-2019 07:00:00 | -2.50°C | Sudeste |3.00 km/h | 65.00% | 847.10 hPa
  • 16-01-2019 06:00:00 | -1.70°C | Sudeste |4.00 km/h | 55.00% | 847.50 hPa
  • 16-01-2019 05:00:00 | -3.00°C | Nordeste |2.00 km/h | 63.00% | 847.70 hPa
  • 16-01-2019 04:00:00 | -3.20°C | Sudoeste |2.00 km/h | 63.00% | 848.30 hPa
  • 16-01-2019 03:00:00 | -3.30°C | Oeste |3.00 km/h | 62.00% | 848.50 hPa
  • 16-01-2019 02:00:00 | -2.60°C | Calma |0.00 km/h | 57.00% | 848.80 hPa
  • 16-01-2019 01:00:00 | -2.50°C | Noroeste |3.00 km/h | 57.00% | 849.20 hPa
  • 16-01-2019 00:00:00 | -2.60°C | Oeste |4.00 km/h | 53.00% | 849.70 hPa
  • 15-01-2019 23:00:00 | -1.10°C | Oeste |4.00 km/h | 44.00% | 849.90 hPa
  • 15-01-2019 22:00:00 | -1.20°C | Sudoeste |2.00 km/h | 46.00% | 849.90 hPa
  • 15-01-2019 21:00:00 | -1.00°C | Oeste |5.00 km/h | 45.00% | 850.10 hPa
  • 15-01-2019 20:00:00 | -1.10°C | Oeste |6.00 km/h | 48.00% | 850.20 hPa
  • 15-01-2019 19:00:00 | 0.30°C | Oeste |6.00 km/h | 44.00% | 850.30 hPa
  • 15-01-2019 18:00:00 | 2.90°C | Oeste |4.00 km/h | 40.00% | 850.20 hPa
    • diseño web asturias Información sobre el estado de las mareas, altura de la marejada, temperatura del agua y otros datos de Gijón en Asturias.

      Surf Gijón